createdAt,value
2023-03-29T00:00:08.283Z,7.35
2023-03-29T00:02:35.015Z,7.36
2023-03-29T00:05:04.976Z,7.36
2023-03-29T00:07:33.557Z,7.39
2023-03-29T00:10:01.644Z,7.37
2023-03-29T00:12:28.878Z,7.36
2023-03-29T00:14:55.414Z,7.34
2023-03-29T00:17:27.735Z,7.37
2023-03-29T00:19:54.382Z,7.36
2023-03-29T00:22:21.469Z,7.36
2023-03-29T00:24:53.889Z,7.34
2023-03-29T00:27:21.908Z,7.35
2023-03-29T00:29:48.504Z,7.35
2023-03-29T00:32:24.176Z,7.35
2023-03-29T00:34:52.565Z,7.36
2023-03-29T00:37:19.327Z,7.34
2023-03-29T00:39:51.067Z,7.31
2023-03-29T00:42:17.918Z,7.27
2023-03-29T00:45:07.212Z,7.24
2023-03-29T00:47:53.935Z,7.25
2023-03-29T00:50:26.461Z,7.28
2023-03-29T00:53:02.513Z,7.30
2023-03-29T00:55:43.553Z,7.31
2023-03-29T00:58:13.959Z,7.36
2023-03-29T01:00:56.507Z,7.39
2023-03-29T01:03:36.090Z,7.42
2023-03-29T01:06:09.593Z,7.45
2023-03-29T01:08:45.392Z,7.45
2023-03-29T01:11:19.429Z,7.40
2023-03-29T01:13:59.888Z,7.38
2023-03-29T01:16:28.907Z,7.39
2023-03-29T01:19:00.579Z,7.39
2023-03-29T01:21:36.479Z,7.39
2023-03-29T01:24:15.308Z,7.38
2023-03-29T01:27:24.554Z,7.36
2023-03-29T01:29:54.246Z,7.37
2023-03-29T01:32:35.556Z,7.36
2023-03-29T01:35:13.684Z,7.35
2023-03-29T01:37:50.436Z,7.34
2023-03-29T01:40:17.060Z,7.32
2023-03-29T01:43:08.382Z,7.30
2023-03-29T01:46:03.092Z,7.29
2023-03-29T01:48:31.217Z,7.27
2023-03-29T01:51:07.206Z,7.27
2023-03-29T01:53:44.021Z,7.28
2023-03-29T01:56:14.383Z,7.28
2023-03-29T01:58:49.189Z,7.27
2023-03-29T02:01:22.998Z,7.27
2023-03-29T02:03:56.410Z,7.26
2023-03-29T02:06:27.158Z,7.27
2023-03-29T02:08:55.819Z,7.27
2023-03-29T02:11:25.092Z,7.27
2023-03-29T02:13:51.629Z,7.25
2023-03-29T02:16:19.248Z,7.26
2023-03-29T02:18:50.158Z,7.28
2023-03-29T02:21:24.048Z,7.27
2023-03-29T02:23:59.336Z,7.24
2023-03-29T02:26:26.298Z,7.26
2023-03-29T02:28:53.402Z,7.25
2023-03-29T02:31:35.151Z,7.23
2023-03-29T02:34:19.212Z,7.23
2023-03-29T02:37:17.682Z,7.22
2023-03-29T02:39:47.712Z,7.22
2023-03-29T02:42:19.558Z,7.22
2023-03-29T02:44:52.484Z,7.21
2023-03-29T02:47:32.339Z,7.22
2023-03-29T02:49:59.753Z,7.22
2023-03-29T02:52:37.841Z,7.21
2023-03-29T02:55:08.418Z,7.21
2023-03-29T02:57:38.211Z,7.20
2023-03-29T03:00:09.693Z,7.20
2023-03-29T03:02:42.895Z,7.17
2023-03-29T03:05:09.618Z,7.17
2023-03-29T03:07:38.368Z,7.19
2023-03-29T03:10:05.380Z,7.17
2023-03-29T03:12:31.861Z,7.17
2023-03-29T03:14:58.602Z,7.15
2023-03-29T03:17:25.352Z,7.14
2023-03-29T03:19:56.272Z,7.15
2023-03-29T03:22:24.479Z,7.14
2023-03-29T03:24:50.938Z,7.12
2023-03-29T03:27:18.088Z,7.12
2023-03-29T03:29:49.072Z,7.13
2023-03-29T03:32:16.296Z,7.12
2023-03-29T03:34:42.845Z,7.13
2023-03-29T03:37:11.017Z,7.11
2023-03-29T03:39:37.771Z,7.06
2023-03-29T03:42:07.847Z,7.05
2023-03-29T03:44:34.786Z,7.04
2023-03-29T03:47:01.493Z,7.06
2023-03-29T03:49:28.210Z,7.05
2023-03-29T03:52:01.306Z,7.05
2023-03-29T03:54:28.058Z,7.04
2023-03-29T03:56:54.639Z,7.02
2023-03-29T03:59:22.472Z,7.01
2023-03-29T04:01:48.948Z,7.01
2023-03-29T04:04:21.486Z,7.01
2023-03-29T04:06:48.126Z,7.00
2023-03-29T04:09:14.652Z,7.00
2023-03-29T04:11:41.191Z,6.99
2023-03-29T04:14:09.533Z,6.96
2023-03-29T04:16:36.862Z,6.93
2023-03-29T04:19:03.411Z,6.88
2023-03-29T04:21:31.640Z,6.86
2023-03-29T04:23:58.135Z,6.83
2023-03-29T04:26:24.778Z,6.81
2023-03-29T04:28:53.506Z,6.81
2023-03-29T04:31:20.060Z,6.81
2023-03-29T04:33:47.528Z,6.79
2023-03-29T04:36:15.919Z,6.78
2023-03-29T04:38:48.012Z,6.77
2023-03-29T04:41:15.545Z,6.75
2023-03-29T04:43:48.423Z,6.72
2023-03-29T04:46:17.205Z,6.71
2023-03-29T04:48:43.768Z,6.68
2023-03-29T04:51:12.544Z,6.65
2023-03-29T04:53:39.045Z,6.64
2023-03-29T04:56:06.308Z,6.63
2023-03-29T04:58:41.468Z,6.63
2023-03-29T05:01:07.922Z,6.63
2023-03-29T05:03:34.397Z,6.63
2023-03-29T05:06:11.559Z,6.64
2023-03-29T05:08:40.533Z,6.62
2023-03-29T05:11:09.326Z,6.63
2023-03-29T05:13:36.939Z,6.62
2023-03-29T05:16:04.910Z,6.61
2023-03-29T05:18:31.885Z,6.58
2023-03-29T05:21:06.819Z,6.57
2023-03-29T05:23:34.348Z,6.56
2023-03-29T05:26:00.933Z,6.56
2023-03-29T05:28:29.229Z,6.53
2023-03-29T05:31:01.389Z,6.53
2023-03-29T05:33:28.763Z,6.51
2023-03-29T05:36:11.321Z,6.49
2023-03-29T05:38:41.881Z,6.47
2023-03-29T05:41:08.648Z,6.47
2023-03-29T05:43:37.402Z,6.47
2023-03-29T05:46:04.165Z,6.47
2023-03-29T05:48:33.244Z,6.46
2023-03-29T05:50:59.917Z,6.45
2023-03-29T05:53:27.505Z,6.45
2023-03-29T05:55:54.343Z,6.45
2023-03-29T05:58:21.545Z,6.45
2023-03-29T06:00:51.319Z,6.44
2023-03-29T06:03:21.625Z,6.45
2023-03-29T06:06:03.057Z,6.47
2023-03-29T06:08:30.178Z,6.48
2023-03-29T06:11:04.603Z,6.48
2023-03-29T06:13:38.478Z,6.50
2023-03-29T06:16:08.592Z,6.52
2023-03-29T06:18:40.353Z,6.53
2023-03-29T06:21:09.263Z,6.52
2023-03-29T06:23:36.626Z,6.54
2023-03-29T06:26:04.158Z,6.52
2023-03-29T06:28:30.665Z,6.54
2023-03-29T06:31:04.311Z,6.54
2023-03-29T06:33:34.203Z,6.56
2023-03-29T06:36:01.080Z,6.58
2023-03-29T06:38:28.572Z,6.61
2023-03-29T06:41:10.286Z,6.63
2023-03-29T06:43:37.657Z,6.66
2023-03-29T06:46:04.615Z,6.68
2023-03-29T06:48:31.908Z,6.71
2023-03-29T06:50:58.581Z,6.72
2023-03-29T06:53:26.331Z,6.74
2023-03-29T06:55:53.022Z,6.76
2023-03-29T06:58:19.754Z,6.77
2023-03-29T07:00:46.890Z,6.80
2023-03-29T07:03:22.317Z,6.81
2023-03-29T07:05:51.815Z,6.84
2023-03-29T07:08:20.956Z,6.88
2023-03-29T07:10:52.891Z,6.91
2023-03-29T07:13:19.604Z,6.96
2023-03-29T07:15:46.603Z,7.01
2023-03-29T07:18:13.275Z,7.04
2023-03-29T07:20:47.610Z,7.08
2023-03-29T07:23:14.324Z,7.11
2023-03-29T07:25:44.892Z,7.13
2023-03-29T07:28:11.732Z,7.19
2023-03-29T07:30:40.105Z,7.21
2023-03-29T07:33:06.672Z,7.23
2023-03-29T07:35:45.322Z,7.27
2023-03-29T07:38:11.817Z,7.30
2023-03-29T07:40:38.359Z,7.33
2023-03-29T07:43:09.192Z,7.37
2023-03-29T07:45:35.781Z,7.40
2023-03-29T07:48:04.919Z,7.45
2023-03-29T07:50:32.786Z,7.52
2023-03-29T07:53:00.992Z,7.55
2023-03-29T07:55:27.633Z,7.59
2023-03-29T07:57:54.534Z,7.65
2023-03-29T08:00:24.964Z,7.67
2023-03-29T08:02:52.678Z,7.68
2023-03-29T08:05:33.478Z,7.70
2023-03-29T08:08:08.057Z,7.77
2023-03-29T08:10:36.048Z,7.81
2023-03-29T08:13:07.448Z,7.83
2023-03-29T08:15:35.431Z,7.87
2023-03-29T08:18:02.074Z,7.91
2023-03-29T08:20:28.663Z,7.97
2023-03-29T08:22:55.183Z,8.02
2023-03-29T08:25:24.524Z,8.07
2023-03-29T08:27:51.469Z,8.14
2023-03-29T08:30:18.185Z,8.19
2023-03-29T08:32:46.936Z,8.22
2023-03-29T08:35:15.532Z,8.28
2023-03-29T08:37:42.211Z,8.33
2023-03-29T08:40:18.554Z,8.39
2023-03-29T08:43:13.220Z,8.44
2023-03-29T08:46:03.418Z,8.46
2023-03-29T08:48:33.951Z,8.50
2023-03-29T08:51:09.928Z,8.53
2023-03-29T08:53:45.151Z,8.57
2023-03-29T08:56:15.915Z,8.64
2023-03-29T08:58:45.188Z,8.69
2023-03-29T09:01:12.034Z,8.74
2023-03-29T09:03:48.123Z,8.78
2023-03-29T09:06:17.613Z,8.83
2023-03-29T09:08:55.583Z,8.88
2023-03-29T09:11:25.085Z,8.92
2023-03-29T09:14:02.355Z,8.99
2023-03-29T09:16:32.069Z,9.05
2023-03-29T09:19:21.028Z,9.12
2023-03-29T09:21:56.514Z,9.22
2023-03-29T09:24:37.625Z,9.33
2023-03-29T09:27:15.264Z,9.43
2023-03-29T09:30:15.489Z,9.53
2023-03-29T09:32:51.746Z,9.67
2023-03-29T09:35:53.490Z,9.75
2023-03-29T09:38:22.172Z,9.85
2023-03-29T09:41:02.542Z,9.97
2023-03-29T09:43:36.278Z,10.12
2023-03-29T09:46:06.646Z,10.24
2023-03-29T09:48:39.965Z,10.28
2023-03-29T09:51:13.221Z,10.35
2023-03-29T09:53:39.783Z,10.39
2023-03-29T09:56:08.545Z,10.46
2023-03-29T09:58:36.275Z,10.58
2023-03-29T10:01:08.821Z,10.65
2023-03-29T10:03:37.083Z,10.74
2023-03-29T10:06:08.155Z,10.86
2023-03-29T10:08:47.965Z,10.96
2023-03-29T10:11:23.725Z,11.02
2023-03-29T10:13:54.840Z,11.10
2023-03-29T10:16:29.858Z,11.05
2023-03-29T10:18:56.552Z,10.99
2023-03-29T10:21:23.808Z,11.02
2023-03-29T10:24:01.489Z,11.10
2023-03-29T10:26:33.166Z,11.19
2023-03-29T10:29:01.867Z,11.36
2023-03-29T10:31:31.676Z,11.57
2023-03-29T10:34:02.868Z,11.81
2023-03-29T10:36:29.567Z,12.11
2023-03-29T10:39:05.744Z,12.43
2023-03-29T10:41:34.951Z,12.70
2023-03-29T10:44:02.205Z,12.96
2023-03-29T10:46:30.405Z,13.15
2023-03-29T10:48:59.289Z,13.36
2023-03-29T10:51:34.590Z,13.48
2023-03-29T10:54:03.336Z,13.62
2023-03-29T10:56:42.543Z,13.72
2023-03-29T10:59:24.518Z,13.73
2023-03-29T11:02:14.786Z,13.85
2023-03-29T11:05:00.305Z,13.95
2023-03-29T11:07:31.852Z,14.04
2023-03-29T11:10:31.661Z,14.21
2023-03-29T11:13:20.179Z,14.31
2023-03-29T11:16:28.648Z,14.42
2023-03-29T11:19:20.068Z,14.46
2023-03-29T11:21:46.476Z,14.52
2023-03-29T11:24:37.374Z,14.54
2023-03-29T11:27:33.161Z,14.61
2023-03-29T11:30:04.010Z,14.64
2023-03-29T11:32:55.594Z,14.70
2023-03-29T11:35:59.506Z,14.71
2023-03-29T11:38:45.163Z,14.79
2023-03-29T11:41:20.165Z,14.87
2023-03-29T11:44:05.679Z,14.89
2023-03-29T11:46:44.387Z,15.01
2023-03-29T11:49:19.513Z,15.17
2023-03-29T11:51:55.447Z,15.31
2023-03-29T11:54:44.707Z,15.43
2023-03-29T11:57:15.661Z,15.52
2023-03-29T11:59:52.186Z,15.56
2023-03-29T12:02:37.752Z,15.75
2023-03-29T12:05:15.286Z,16.04
2023-03-29T12:07:55.375Z,16.27
2023-03-29T12:10:29.288Z,16.41
2023-03-29T12:13:16.584Z,16.49
2023-03-29T12:15:49.812Z,16.71
2023-03-29T12:18:42.714Z,16.83
2023-03-29T12:21:23.955Z,17.01
2023-03-29T12:23:51.904Z,17.15
2023-03-29T12:26:38.021Z,17.22
2023-03-29T12:29:12.096Z,17.27
2023-03-29T12:31:44.349Z,17.48
2023-03-29T12:34:31.124Z,17.52
2023-03-29T12:37:16.745Z,17.55
2023-03-29T12:39:45.705Z,17.59
2023-03-29T12:42:21.101Z,17.56
2023-03-29T12:44:57.529Z,17.51
2023-03-29T12:47:26.723Z,17.42
2023-03-29T12:50:00.495Z,17.30
2023-03-29T12:52:34.962Z,17.21
2023-03-29T12:55:18.634Z,17.17
2023-03-29T12:58:02.616Z,17.07
2023-03-29T13:00:43.789Z,17.00
2023-03-29T13:03:35.417Z,16.89
2023-03-29T13:06:09.730Z,16.84
2023-03-29T13:08:44.802Z,16.77
2023-03-29T13:11:29.486Z,16.66
2023-03-29T13:13:57.390Z,16.65
2023-03-29T13:16:50.352Z,16.64
2023-03-29T13:19:28.961Z,16.67
2023-03-29T13:22:25.778Z,16.66
2023-03-29T13:25:02.262Z,16.70
2023-03-29T13:28:00.328Z,16.69
2023-03-29T13:30:55.454Z,16.70
2023-03-29T13:33:50.732Z,16.71
2023-03-29T13:37:06.897Z,16.72
2023-03-29T13:39:40.621Z,16.77
2023-03-29T13:42:21.717Z,16.79
2023-03-29T13:44:51.536Z,16.81
2023-03-29T13:47:33.174Z,16.82
2023-03-29T13:50:21.504Z,16.90
2023-03-29T13:53:12.310Z,16.93
2023-03-29T13:55:49.331Z,16.99
2023-03-29T13:58:45.757Z,17.02
2023-03-29T14:01:35.650Z,17.12
2023-03-29T14:04:05.818Z,17.20
2023-03-29T14:06:35.062Z,17.25
2023-03-29T14:09:08.556Z,17.29
2023-03-29T14:11:38.323Z,17.35
2023-03-29T14:14:08.180Z,17.45
2023-03-29T14:16:40.483Z,17.52
2023-03-29T14:19:17.511Z,17.60
2023-03-29T14:21:46.502Z,17.63
2023-03-29T14:24:21.593Z,17.61
2023-03-29T14:26:50.416Z,17.66
2023-03-29T14:29:18.332Z,17.70
2023-03-29T14:31:45.029Z,17.72
2023-03-29T14:34:14.648Z,17.68
2023-03-29T14:36:42.958Z,17.68
2023-03-29T14:39:20.334Z,17.68
2023-03-29T14:41:52.849Z,17.70
2023-03-29T14:44:22.599Z,17.73
2023-03-29T14:46:49.337Z,17.74
2023-03-29T14:49:18.428Z,17.69
2023-03-29T14:51:47.305Z,17.70
2023-03-29T14:54:23.894Z,17.75
2023-03-29T14:57:02.392Z,17.77
2023-03-29T14:59:38.970Z,17.77
2023-03-29T15:02:25.374Z,17.82
2023-03-29T15:05:05.764Z,17.86
2023-03-29T15:07:38.188Z,17.85
2023-03-29T15:10:07.384Z,17.85
2023-03-29T15:12:35.953Z,17.82
2023-03-29T15:15:08.210Z,17.79
2023-03-29T15:17:50.528Z,17.77
2023-03-29T15:20:28.476Z,17.72
2023-03-29T15:23:04.100Z,17.65
2023-03-29T15:25:36.784Z,17.59
2023-03-29T15:28:04.117Z,17.47
2023-03-29T15:30:39.605Z,17.41
2023-03-29T15:33:20.150Z,17.34
2023-03-29T15:35:50.626Z,17.30
2023-03-29T15:38:17.806Z,17.25
2023-03-29T15:40:44.414Z,17.19
2023-03-29T15:43:15.284Z,17.11
2023-03-29T15:45:41.801Z,17.06
2023-03-29T15:48:15.576Z,17.01
2023-03-29T15:50:44.458Z,16.97
2023-03-29T15:53:15.525Z,16.94
2023-03-29T15:55:49.727Z,16.91
2023-03-29T15:58:19.205Z,16.87
2023-03-29T16:00:56.912Z,16.85
2023-03-29T16:03:24.623Z,16.82
2023-03-29T16:05:54.161Z,16.80
2023-03-29T16:08:22.353Z,16.76
2023-03-29T16:10:49.549Z,16.71
2023-03-29T16:13:16.362Z,16.64
2023-03-29T16:15:44.723Z,16.60
2023-03-29T16:18:11.352Z,16.58
2023-03-29T16:20:38.341Z,16.56
2023-03-29T16:23:11.237Z,16.52
2023-03-29T16:25:40.543Z,16.44
2023-03-29T16:28:09.122Z,16.39
2023-03-29T16:30:37.590Z,16.36
2023-03-29T16:33:08.349Z,16.32
2023-03-29T16:35:42.294Z,16.29
2023-03-29T16:38:09.328Z,16.28
2023-03-29T16:40:36.541Z,16.25
2023-03-29T16:43:04.084Z,16.23
2023-03-29T16:45:30.811Z,16.20
2023-03-29T16:47:57.650Z,16.18
2023-03-29T16:50:26.177Z,16.15
2023-03-29T16:52:53.096Z,16.14
2023-03-29T16:55:19.705Z,16.12
2023-03-29T16:57:49.420Z,16.08
2023-03-29T17:00:19.560Z,16.02
2023-03-29T17:02:49.747Z,15.90
2023-03-29T17:05:17.737Z,15.80
2023-03-29T17:07:44.883Z,15.72
2023-03-29T17:10:12.443Z,15.65
2023-03-29T17:12:39.505Z,15.60
2023-03-29T17:15:09.404Z,15.57
2023-03-29T17:17:37.482Z,15.54
2023-03-29T17:20:08.600Z,15.48
2023-03-29T17:22:36.004Z,15.45
2023-03-29T17:25:03.831Z,15.42
2023-03-29T17:27:34.931Z,15.39
2023-03-29T17:30:01.810Z,15.34
2023-03-29T17:32:28.305Z,15.30
2023-03-29T17:34:56.633Z,15.27
2023-03-29T17:37:23.220Z,15.26
2023-03-29T17:39:52.448Z,15.22
2023-03-29T17:42:20.734Z,15.19
2023-03-29T17:44:47.241Z,15.15
2023-03-29T17:47:13.773Z,15.11
2023-03-29T17:49:40.701Z,15.08
2023-03-29T17:52:09.249Z,15.06
2023-03-29T17:54:35.755Z,15.04
2023-03-29T17:57:02.481Z,15.01
2023-03-29T17:59:29.021Z,14.93
2023-03-29T18:01:55.831Z,14.83
2023-03-29T18:04:31.112Z,14.81
2023-03-29T18:07:00.216Z,14.68
2023-03-29T18:09:30.617Z,14.44
2023-03-29T18:11:59.427Z,14.19
2023-03-29T18:14:26.332Z,14.04
2023-03-29T18:16:55.813Z,13.92
2023-03-29T18:19:26.242Z,13.82
2023-03-29T18:21:52.986Z,13.70
2023-03-29T18:24:19.660Z,13.61
2023-03-29T18:26:48.468Z,13.51
2023-03-29T18:29:15.519Z,13.39
2023-03-29T18:31:42.897Z,13.30
2023-03-29T18:34:11.832Z,13.28
2023-03-29T18:36:38.575Z,13.28
2023-03-29T18:39:05.878Z,13.28
2023-03-29T18:41:43.483Z,13.24
2023-03-29T18:44:14.105Z,13.24
2023-03-29T18:46:40.982Z,13.23
2023-03-29T18:49:09.519Z,13.23
2023-03-29T18:51:36.258Z,13.23
2023-03-29T18:54:04.341Z,13.21
2023-03-29T18:56:31.928Z,13.18
2023-03-29T18:58:58.624Z,13.20
2023-03-29T19:01:25.291Z,13.24
2023-03-29T19:03:52.181Z,13.29
2023-03-29T19:06:19.241Z,13.28
2023-03-29T19:08:45.795Z,13.25
2023-03-29T19:11:14.538Z,13.23
2023-03-29T19:13:41.506Z,13.22
2023-03-29T19:16:08.484Z,13.20
2023-03-29T19:18:37.156Z,13.20
2023-03-29T19:21:04.007Z,13.20
2023-03-29T19:23:30.839Z,13.19
2023-03-29T19:26:02.867Z,13.21
2023-03-29T19:28:30.096Z,13.22
2023-03-29T19:30:58.987Z,13.21
2023-03-29T19:33:27.318Z,13.23
2023-03-29T19:35:54.104Z,13.28
2023-03-29T19:38:21.490Z,13.31
2023-03-29T19:40:49.884Z,13.35
2023-03-29T19:43:17.002Z,13.40
2023-03-29T19:45:44.774Z,13.43
2023-03-29T19:48:22.915Z,13.45
2023-03-29T19:50:50.455Z,13.45
2023-03-29T19:53:16.982Z,13.44
2023-03-29T19:55:45.438Z,13.47
2023-03-29T19:58:12.951Z,13.47
2023-03-29T20:00:40.026Z,13.51
2023-03-29T20:03:12.206Z,13.50
2023-03-29T20:05:38.967Z,13.46
2023-03-29T20:08:06.022Z,13.43
2023-03-29T20:10:35.241Z,13.42
2023-03-29T20:13:03.184Z,13.42
2023-03-29T20:15:29.720Z,13.43
2023-03-29T20:17:59.366Z,13.47
2023-03-29T20:20:29.956Z,13.50
2023-03-29T20:23:04.904Z,13.53
2023-03-29T20:25:36.791Z,13.50
2023-03-29T20:28:06.560Z,13.47
2023-03-29T20:30:33.290Z,13.48
2023-03-29T20:32:59.799Z,13.51
2023-03-29T20:35:31.426Z,13.52
2023-03-29T20:37:57.963Z,13.52
2023-03-29T20:40:24.887Z,13.55
2023-03-29T20:42:53.185Z,13.48
2023-03-29T20:45:19.771Z,13.39
2023-03-29T20:47:58.027Z,13.32
2023-03-29T20:50:28.688Z,13.24
2023-03-29T20:53:04.327Z,13.16
2023-03-29T20:55:33.295Z,13.03
2023-03-29T20:58:00.749Z,12.94
2023-03-29T21:00:30.243Z,12.88
2023-03-29T21:03:00.493Z,12.92
2023-03-29T21:05:28.941Z,13.05
2023-03-29T21:07:57.474Z,13.11
2023-03-29T21:10:25.524Z,13.16
2023-03-29T21:12:54.449Z,13.16
2023-03-29T21:15:23.301Z,13.21
2023-03-29T21:17:49.802Z,13.21
2023-03-29T21:20:16.444Z,13.23
2023-03-29T21:22:47.528Z,13.28
2023-03-29T21:25:15.866Z,13.31
2023-03-29T21:27:43.058Z,13.39
2023-03-29T21:30:10.478Z,13.44
2023-03-29T21:32:36.994Z,13.51
2023-03-29T21:35:06.457Z,13.62
2023-03-29T21:37:32.980Z,13.69
2023-03-29T21:40:05.720Z,13.75
2023-03-29T21:42:33.653Z,13.75
2023-03-29T21:45:01.610Z,13.79
2023-03-29T21:47:28.434Z,13.88
2023-03-29T21:49:55.289Z,13.98
2023-03-29T21:52:22.397Z,13.99
2023-03-29T21:54:48.862Z,13.97
2023-03-29T21:57:17.689Z,13.97
2023-03-29T21:59:44.477Z,13.99
2023-03-29T22:02:11.172Z,13.96
2023-03-29T22:04:39.590Z,13.95
2023-03-29T22:07:06.519Z,13.92
2023-03-29T22:09:35.042Z,13.88
2023-03-29T22:12:02.415Z,13.88
2023-03-29T22:14:30.252Z,13.89
2023-03-29T22:16:58.945Z,13.91
2023-03-29T22:19:31.720Z,13.95
2023-03-29T22:22:01.455Z,13.98
2023-03-29T22:24:29.129Z,13.99
2023-03-29T22:27:04.416Z,13.99
2023-03-29T22:29:31.070Z,13.99
2023-03-29T22:31:57.647Z,13.97
2023-03-29T22:34:24.315Z,13.95
2023-03-29T22:36:51.669Z,13.93
2023-03-29T22:39:20.085Z,13.91
2023-03-29T22:41:48.630Z,13.89
2023-03-29T22:44:15.414Z,14.05
2023-03-29T22:46:42.498Z,14.13
2023-03-29T22:49:15.551Z,14.14
2023-03-29T22:51:42.040Z,14.12
2023-03-29T22:54:08.576Z,14.14
2023-03-29T22:56:37.388Z,14.19
2023-03-29T22:59:04.558Z,14.18
2023-03-29T23:01:31.106Z,14.16
2023-03-29T23:03:57.931Z,14.16
2023-03-29T23:06:24.505Z,14.17
2023-03-29T23:08:51.031Z,14.25
2023-03-29T23:11:24.095Z,14.29
2023-03-29T23:13:50.607Z,14.33
2023-03-29T23:16:17.238Z,14.38
2023-03-29T23:18:44.035Z,14.38
2023-03-29T23:21:12.911Z,14.32
2023-03-29T23:23:39.777Z,14.32
2023-03-29T23:26:13.539Z,14.34
2023-03-29T23:28:41.127Z,14.36
2023-03-29T23:31:10.594Z,14.33
2023-03-29T23:33:40.484Z,14.34
2023-03-29T23:36:19.113Z,14.37
2023-03-29T23:38:48.658Z,14.40
2023-03-29T23:41:17.704Z,14.40
2023-03-29T23:43:47.235Z,14.43
2023-03-29T23:46:16.858Z,14.41
2023-03-29T23:48:45.971Z,14.39
2023-03-29T23:51:13.008Z,14.39
2023-03-29T23:53:47.883Z,14.40
2023-03-29T23:56:14.507Z,14.43
2023-03-29T23:58:41.236Z,14.46
